sensor_id;sensor_type;location;lat;lon;timestamp;temperature;humidity
2721;DHT22;1368;49.484;11.112;2022-09-09T00:00:41;14.10;99.90
2721;DHT22;1368;49.484;11.112;2022-09-09T00:03:26;14.20;99.90
2721;DHT22;1368;49.484;11.112;2022-09-09T00:09:13;14.20;99.90
2721;DHT22;1368;49.484;11.112;2022-09-09T00:12:11;14.00;99.90
2721;DHT22;1368;49.484;11.112;2022-09-09T00:17:14;13.80;99.90
2721;DHT22;1368;49.484;11.112;2022-09-09T00:20:29;13.80;99.90
2721;DHT22;1368;49.484;11.112;2022-09-09T00:22:36;13.80;99.90
2721;DHT22;1368;49.484;11.112;2022-09-09T00:25:37;13.80;99.90
2721;DHT22;1368;49.484;11.112;2022-09-09T00:28:16;13.90;99.90
2721;DHT22;1368;49.484;11.112;2022-09-09T00:30:43;13.90;99.90
2721;DHT22;1368;49.484;11.112;2022-09-09T00:33:12;14.40;99.90
2721;DHT22;1368;49.484;11.112;2022-09-09T00:35:47;13.90;99.90
2721;DHT22;1368;49.484;11.112;2022-09-09T00:43:31;14.10;99.90
2721;DHT22;1368;49.484;11.112;2022-09-09T00:48:54;14.10;99.90
2721;DHT22;1368;49.484;11.112;2022-09-09T01:00:19;14.30;99.90
2721;DHT22;1368;49.484;11.112;2022-09-09T01:05:28;14.90;99.90
2721;DHT22;1368;49.484;11.112;2022-09-09T01:07:58;14.50;99.90
2721;DHT22;1368;49.484;11.112;2022-09-09T01:10:50;14.50;99.90
2721;DHT22;1368;49.484;11.112;2022-09-09T01:13:30;14.60;99.90
2721;DHT22;1368;49.484;11.112;2022-09-09T01:16:01;14.70;99.90
2721;DHT22;1368;49.484;11.112;2022-09-09T01:18:54;14.70;99.90
2721;DHT22;1368;49.484;11.112;2022-09-09T01:22:06;15.00;99.90
2721;DHT22;1368;49.484;11.112;2022-09-09T01:24:36;14.50;99.90
2721;DHT22;1368;49.484;11.112;2022-09-09T01:27:05;14.50;99.90
2721;DHT22;1368;49.484;11.112;2022-09-09T01:29:32;14.50;99.90
2721;DHT22;1368;49.484;11.112;2022-09-09T01:32:00;14.50;99.90
2721;DHT22;1368;49.484;11.112;2022-09-09T01:34:33;14.30;99.90
2721;DHT22;1368;49.484;11.112;2022-09-09T01:37:05;14.30;99.90
2721;DHT22;1368;49.484;11.112;2022-09-09T01:39:33;14.40;99.90
2721;DHT22;1368;49.484;11.112;2022-09-09T01:41:59;14.10;99.90
2721;DHT22;1368;49.484;11.112;2022-09-09T01:44:25;14.20;99.90
2721;DHT22;1368;49.484;11.112;2022-09-09T01:46:51;14.40;99.90
2721;DHT22;1368;49.484;11.112;2022-09-09T01:49:18;14.00;99.90
2721;DHT22;1368;49.484;11.112;2022-09-09T01:51:48;13.90;99.90
2721;DHT22;1368;49.484;11.112;2022-09-09T01:54:14;14.70;99.90
2721;DHT22;1368;49.484;11.112;2022-09-09T01:56:52;14.40;99.90
2721;DHT22;1368;49.484;11.112;2022-09-09T01:59:32;14.50;99.90
2721;DHT22;1368;49.484;11.112;2022-09-09T02:04:43;14.40;99.90
2721;DHT22;1368;49.484;11.112;2022-09-09T02:07:28;14.30;99.90
2721;DHT22;1368;49.484;11.112;2022-09-09T02:10:02;14.50;99.90
2721;DHT22;1368;49.484;11.112;2022-09-09T02:12:31;14.30;99.90
2721;DHT22;1368;49.484;11.112;2022-09-09T02:15:05;14.30;99.90
2721;DHT22;1368;49.484;11.112;2022-09-09T02:17:36;14.40;99.90
2721;DHT22;1368;49.484;11.112;2022-09-09T02:20:09;14.60;99.90
2721;DHT22;1368;49.484;11.112;2022-09-09T02:22:37;14.90;99.90
2721;DHT22;1368;49.484;11.112;2022-09-09T02:25:06;15.20;99.90
2721;DHT22;1368;49.484;11.112;2022-09-09T02:27:33;15.20;99.90
2721;DHT22;1368;49.484;11.112;2022-09-09T02:30:00;15.30;99.90
2721;DHT22;1368;49.484;11.112;2022-09-09T02:32:28;15.30;99.90
2721;DHT22;1368;49.484;11.112;2022-09-09T02:35:03;15.40;99.90
2721;DHT22;1368;49.484;11.112;2022-09-09T02:37:35;15.30;99.90
2721;DHT22;1368;49.484;11.112;2022-09-09T02:40:03;15.40;99.90
2721;DHT22;1368;49.484;11.112;2022-09-09T02:42:30;15.60;99.90
2721;DHT22;1368;49.484;11.112;2022-09-09T02:44:55;15.60;99.90
2721;DHT22;1368;49.484;11.112;2022-09-09T02:47:29;16.00;99.90
2721;DHT22;1368;49.484;11.112;2022-09-09T02:50:13;15.80;99.90
2721;DHT22;1368;49.484;11.112;2022-09-09T02:58:17;15.90;99.90
2721;DHT22;1368;49.484;11.112;2022-09-09T03:00:48;15.90;99.90
2721;DHT22;1368;49.484;11.112;2022-09-09T03:03:14;16.00;99.90
2721;DHT22;1368;49.484;11.112;2022-09-09T03:05:41;16.50;99.90
2721;DHT22;1368;49.484;11.112;2022-09-09T03:08:07;16.10;99.90
2721;DHT22;1368;49.484;11.112;2022-09-09T03:10:33;16.10;99.90
2721;DHT22;1368;49.484;11.112;2022-09-09T03:12:59;16.00;99.90
2721;DHT22;1368;49.484;11.112;2022-09-09T03:15:24;15.90;99.90
2721;DHT22;1368;49.484;11.112;2022-09-09T03:17:54;15.90;99.90
2721;DHT22;1368;49.484;11.112;2022-09-09T03:20:20;16.00;99.90
2721;DHT22;1368;49.484;11.112;2022-09-09T03:22:46;15.90;99.90
2721;DHT22;1368;49.484;11.112;2022-09-09T03:25:11;15.90;99.90
2721;DHT22;1368;49.484;11.112;2022-09-09T03:27:37;16.00;99.90
2721;DHT22;1368;49.484;11.112;2022-09-09T03:30:03;16.10;99.90
2721;DHT22;1368;49.484;11.112;2022-09-09T03:32:29;16.10;99.90
2721;DHT22;1368;49.484;11.112;2022-09-09T03:34:56;16.00;99.90
2721;DHT22;1368;49.484;11.112;2022-09-09T03:37:21;15.70;99.90
2721;DHT22;1368;49.484;11.112;2022-09-09T03:39:47;15.90;99.90
2721;DHT22;1368;49.484;11.112;2022-09-09T03:42:14;15.60;99.90
2721;DHT22;1368;49.484;11.112;2022-09-09T03:44:40;15.50;99.90
2721;DHT22;1368;49.484;11.112;2022-09-09T03:47:07;15.40;99.90
2721;DHT22;1368;49.484;11.112;2022-09-09T03:49:32;15.60;99.90
2721;DHT22;1368;49.484;11.112;2022-09-09T03:51:58;15.40;99.90
2721;DHT22;1368;49.484;11.112;2022-09-09T03:54:25;15.50;99.90
2721;DHT22;1368;49.484;11.112;2022-09-09T03:56:51;15.50;99.90
2721;DHT22;1368;49.484;11.112;2022-09-09T03:59:17;15.50;99.90
2721;DHT22;1368;49.484;11.112;2022-09-09T04:01:42;15.70;99.90
2721;DHT22;1368;49.484;11.112;2022-09-09T04:04:08;15.70;99.90
2721;DHT22;1368;49.484;11.112;2022-09-09T04:06:35;15.50;99.90
2721;DHT22;1368;49.484;11.112;2022-09-09T04:09:00;15.30;99.90
2721;DHT22;1368;49.484;11.112;2022-09-09T04:11:28;15.90;99.90
2721;DHT22;1368;49.484;11.112;2022-09-09T04:13:54;15.00;99.90
2721;DHT22;1368;49.484;11.112;2022-09-09T04:16:19;15.20;99.90
2721;DHT22;1368;49.484;11.112;2022-09-09T04:18:45;15.20;99.90
2721;DHT22;1368;49.484;11.112;2022-09-09T04:21:11;15.30;99.90
2721;DHT22;1368;49.484;11.112;2022-09-09T04:23:38;15.40;99.90
2721;DHT22;1368;49.484;11.112;2022-09-09T04:26:04;15.50;99.90
2721;DHT22;1368;49.484;11.112;2022-09-09T04:28:33;15.70;99.90
2721;DHT22;1368;49.484;11.112;2022-09-09T04:31:06;16.20;99.90
2721;DHT22;1368;49.484;11.112;2022-09-09T04:33:33;15.90;99.90
2721;DHT22;1368;49.484;11.112;2022-09-09T04:35:58;15.70;99.90
2721;DHT22;1368;49.484;11.112;2022-09-09T04:38:24;16.00;99.90
2721;DHT22;1368;49.484;11.112;2022-09-09T04:40:50;15.80;99.90
2721;DHT22;1368;49.484;11.112;2022-09-09T04:43:17;15.90;99.90
2721;DHT22;1368;49.484;11.112;2022-09-09T04:45:47;15.50;99.90
2721;DHT22;1368;49.484;11.112;2022-09-09T04:48:13;15.50;99.90
2721;DHT22;1368;49.484;11.112;2022-09-09T04:50:39;15.50;99.90
2721;DHT22;1368;49.484;11.112;2022-09-09T04:53:06;15.50;99.90
2721;DHT22;1368;49.484;11.112;2022-09-09T04:55:32;16.10;99.90
2721;DHT22;1368;49.484;11.112;2022-09-09T04:58:06;15.70;99.90
2721;DHT22;1368;49.484;11.112;2022-09-09T05:00:35;15.60;99.90
2721;DHT22;1368;49.484;11.112;2022-09-09T05:03:05;15.60;99.90
2721;DHT22;1368;49.484;11.112;2022-09-09T05:05:31;15.70;99.90
2721;DHT22;1368;49.484;11.112;2022-09-09T05:08:06;15.80;99.90
2721;DHT22;1368;49.484;11.112;2022-09-09T05:10:33;15.90;99.90
2721;DHT22;1368;49.484;11.112;2022-09-09T05:12:59;15.70;99.90
2721;DHT22;1368;49.484;11.112;2022-09-09T05:15:25;15.70;99.90
2721;DHT22;1368;49.484;11.112;2022-09-09T05:17:50;15.70;99.90
2721;DHT22;1368;49.484;11.112;2022-09-09T05:20:18;15.80;99.90
2721;DHT22;1368;49.484;11.112;2022-09-09T05:22:44;16.50;99.90
2721;DHT22;1368;49.484;11.112;2022-09-09T05:25:10;16.40;99.90
2721;DHT22;1368;49.484;11.112;2022-09-09T05:27:35;16.40;99.90
2721;DHT22;1368;49.484;11.112;2022-09-09T05:30:01;16.60;99.90
2721;DHT22;1368;49.484;11.112;2022-09-09T05:32:26;16.70;99.90
2721;DHT22;1368;49.484;11.112;2022-09-09T05:34:53;16.90;99.90
2721;DHT22;1368;49.484;11.112;2022-09-09T05:37:18;17.00;99.90
2721;DHT22;1368;49.484;11.112;2022-09-09T05:39:44;17.40;99.90
2721;DHT22;1368;49.484;11.112;2022-09-09T05:42:10;17.30;99.90
2721;DHT22;1368;49.484;11.112;2022-09-09T05:44:35;16.70;99.90
2721;DHT22;1368;49.484;11.112;2022-09-09T05:47:01;16.90;99.90
2721;DHT22;1368;49.484;11.112;2022-09-09T05:49:27;17.40;99.90
2721;DHT22;1368;49.484;11.112;2022-09-09T05:51:52;17.20;99.90
2721;DHT22;1368;49.484;11.112;2022-09-09T05:54:18;17.30;99.90
2721;DHT22;1368;49.484;11.112;2022-09-09T05:56:43;17.80;99.90
2721;DHT22;1368;49.484;11.112;2022-09-09T05:59:09;17.60;99.90
2721;DHT22;1368;49.484;11.112;2022-09-09T06:01:36;17.70;99.90
2721;DHT22;1368;49.484;11.112;2022-09-09T06:04:06;17.40;99.90
2721;DHT22;1368;49.484;11.112;2022-09-09T06:06:33;17.40;99.90
2721;DHT22;1368;49.484;11.112;2022-09-09T06:09:03;17.50;99.90
2721;DHT22;1368;49.484;11.112;2022-09-09T06:11:32;17.40;99.90
2721;DHT22;1368;49.484;11.112;2022-09-09T06:13:58;17.50;99.90
2721;DHT22;1368;49.484;11.112;2022-09-09T06:16:26;17.60;99.90
2721;DHT22;1368;49.484;11.112;2022-09-09T06:18:53;17.50;99.90
2721;DHT22;1368;49.484;11.112;2022-09-09T06:21:27;17.40;99.90
2721;DHT22;1368;49.484;11.112;2022-09-09T06:23:54;17.30;99.90
2721;DHT22;1368;49.484;11.112;2022-09-09T06:26:24;17.40;99.90
2721;DHT22;1368;49.484;11.112;2022-09-09T06:28:52;17.70;99.90
2721;DHT22;1368;49.484;11.112;2022-09-09T06:31:20;17.90;99.90
2721;DHT22;1368;49.484;11.112;2022-09-09T06:33:47;18.10;99.90
2721;DHT22;1368;49.484;11.112;2022-09-09T06:36:17;18.50;99.90
2721;DHT22;1368;49.484;11.112;2022-09-09T06:38:43;18.20;99.90
2721;DHT22;1368;49.484;11.112;2022-09-09T06:41:10;19.20;99.90
2721;DHT22;1368;49.484;11.112;2022-09-09T06:43:36;19.50;99.90
2721;DHT22;1368;49.484;11.112;2022-09-09T06:46:08;19.90;99.90
2721;DHT22;1368;49.484;11.112;2022-09-09T06:48:34;20.00;99.90
2721;DHT22;1368;49.484;11.112;2022-09-09T06:53:28;19.80;99.90
2721;DHT22;1368;49.484;11.112;2022-09-09T06:55:54;20.10;99.90
2721;DHT22;1368;49.484;11.112;2022-09-09T06:58:20;20.60;99.90
2721;DHT22;1368;49.484;11.112;2022-09-09T07:00:47;20.40;99.90
2721;DHT22;1368;49.484;11.112;2022-09-09T07:03:13;20.40;99.90
2721;DHT22;1368;49.484;11.112;2022-09-09T07:05:39;21.30;99.90
2721;DHT22;1368;49.484;11.112;2022-09-09T07:08:04;21.50;99.90
2721;DHT22;1368;49.484;11.112;2022-09-09T07:10:30;22.10;99.90
2721;DHT22;1368;49.484;11.112;2022-09-09T07:12:56;22.20;99.90
2721;DHT22;1368;49.484;11.112;2022-09-09T07:15:22;21.80;99.90
2721;DHT22;1368;49.484;11.112;2022-09-09T07:17:48;21.70;99.90
2721;DHT22;1368;49.484;11.112;2022-09-09T07:20:14;21.40;99.90
2721;DHT22;1368;49.484;11.112;2022-09-09T07:22:40;21.10;99.90
2721;DHT22;1368;49.484;11.112;2022-09-09T07:25:06;21.90;99.90
2721;DHT22;1368;49.484;11.112;2022-09-09T07:27:32;21.60;99.90
2721;DHT22;1368;49.484;11.112;2022-09-09T07:29:58;21.80;99.90
2721;DHT22;1368;49.484;11.112;2022-09-09T07:32:23;21.70;99.90
2721;DHT22;1368;49.484;11.112;2022-09-09T07:34:51;21.70;99.90
2721;DHT22;1368;49.484;11.112;2022-09-09T07:37:16;21.50;99.90
2721;DHT22;1368;49.484;11.112;2022-09-09T07:39:43;21.40;99.90
2721;DHT22;1368;49.484;11.112;2022-09-09T07:42:09;22.00;99.90
2721;DHT22;1368;49.484;11.112;2022-09-09T07:44:37;21.30;99.90
2721;DHT22;1368;49.484;11.112;2022-09-09T07:47:05;21.60;99.90
2721;DHT22;1368;49.484;11.112;2022-09-09T07:49:31;22.80;99.90
2721;DHT22;1368;49.484;11.112;2022-09-09T07:51:58;23.00;99.90
2721;DHT22;1368;49.484;11.112;2022-09-09T07:54:24;23.40;99.90
2721;DHT22;1368;49.484;11.112;2022-09-09T07:56:50;22.90;99.90
2721;DHT22;1368;49.484;11.112;2022-09-09T07:59:16;23.50;99.90
2721;DHT22;1368;49.484;11.112;2022-09-09T08:01:48;24.30;99.90
2721;DHT22;1368;49.484;11.112;2022-09-09T08:04:17;25.70;99.90
2721;DHT22;1368;49.484;11.112;2022-09-09T08:06:57;27.40;97.70
2721;DHT22;1368;49.484;11.112;2022-09-09T08:09:24;27.90;95.40
2721;DHT22;1368;49.484;11.112;2022-09-09T08:11:52;27.40;95.00
2721;DHT22;1368;49.484;11.112;2022-09-09T08:14:18;27.90;93.90
2721;DHT22;1368;49.484;11.112;2022-09-09T08:16:46;27.90;94.40
2721;DHT22;1368;49.484;11.112;2022-09-09T08:19:12;28.40;92.70
2721;DHT22;1368;49.484;11.112;2022-09-09T08:21:40;28.80;93.30
2721;DHT22;1368;49.484;11.112;2022-09-09T08:24:06;29.30;92.50
2721;DHT22;1368;49.484;11.112;2022-09-09T08:26:38;29.90;90.70
2721;DHT22;1368;49.484;11.112;2022-09-09T08:29:05;30.10;90.40
2721;DHT22;1368;49.484;11.112;2022-09-09T08:31:36;30.30;90.30
2721;DHT22;1368;49.484;11.112;2022-09-09T08:34:03;31.00;87.60
2721;DHT22;1368;49.484;11.112;2022-09-09T08:36:31;31.40;84.20
2721;DHT22;1368;49.484;11.112;2022-09-09T08:38:59;31.70;80.50
2721;DHT22;1368;49.484;11.112;2022-09-09T08:54:44;32.50;75.30
2721;DHT22;1368;49.484;11.112;2022-09-09T08:57:14;32.90;75.90
2721;DHT22;1368;49.484;11.112;2022-09-09T08:59:43;33.20;74.40
2721;DHT22;1368;49.484;11.112;2022-09-09T09:02:24;33.50;72.30
2721;DHT22;1368;49.484;11.112;2022-09-09T09:05:09;33.50;71.00
2721;DHT22;1368;49.484;11.112;2022-09-09T09:10:53;32.40;68.80
2721;DHT22;1368;49.484;11.112;2022-09-09T09:13:31;30.30;74.50
2721;DHT22;1368;49.484;11.112;2022-09-09T09:16:02;29.70;76.10
2721;DHT22;1368;49.484;11.112;2022-09-09T09:18:30;30.10;77.70
2721;DHT22;1368;49.484;11.112;2022-09-09T09:21:34;30.20;76.00
2721;DHT22;1368;49.484;11.112;2022-09-09T09:24:04;29.50;76.30
2721;DHT22;1368;49.484;11.112;2022-09-09T09:26:35;29.20;80.20
2721;DHT22;1368;49.484;11.112;2022-09-09T09:29:10;29.70;79.10
2721;DHT22;1368;49.484;11.112;2022-09-09T09:31:37;29.50;80.00
2721;DHT22;1368;49.484;11.112;2022-09-09T09:34:02;29.50;80.00
2721;DHT22;1368;49.484;11.112;2022-09-09T09:36:43;29.20;80.20
2721;DHT22;1368;49.484;11.112;2022-09-09T09:39:29;29.30;79.40
2721;DHT22;1368;49.484;11.112;2022-09-09T09:41:55;29.30;77.40
2721;DHT22;1368;49.484;11.112;2022-09-09T09:46:48;29.50;80.30
2721;DHT22;1368;49.484;11.112;2022-09-09T09:49:14;30.10;78.70
2721;DHT22;1368;49.484;11.112;2022-09-09T09:51:39;30.70;78.00
2721;DHT22;1368;49.484;11.112;2022-09-09T09:54:23;30.90;77.40
2721;DHT22;1368;49.484;11.112;2022-09-09T09:56:53;31.30;74.40
2721;DHT22;1368;49.484;11.112;2022-09-09T10:01:52;31.90;69.60
2721;DHT22;1368;49.484;11.112;2022-09-09T10:04:21;31.10;70.80
2721;DHT22;1368;49.484;11.112;2022-09-09T10:06:49;31.40;72.80
2721;DHT22;1368;49.484;11.112;2022-09-09T10:18:08;28.90;74.00
2721;DHT22;1368;49.484;11.112;2022-09-09T10:26:31;28.40;77.20
2721;DHT22;1368;49.484;11.112;2022-09-09T10:29:41;29.20;77.50
2721;DHT22;1368;49.484;11.112;2022-09-09T10:35:09;30.40;75.80
2721;DHT22;1368;49.484;11.112;2022-09-09T10:40:33;31.10;72.10
2721;DHT22;1368;49.484;11.112;2022-09-09T10:43:13;31.30;71.60
2721;DHT22;1368;49.484;11.112;2022-09-09T10:48:38;29.60;72.20
2721;DHT22;1368;49.484;11.112;2022-09-09T10:57:11;27.60;76.40
2721;DHT22;1368;49.484;11.112;2022-09-09T10:59:44;27.40;78.90
2721;DHT22;1368;49.484;11.112;2022-09-09T11:02:14;27.50;80.50
2721;DHT22;1368;49.484;11.112;2022-09-09T11:04:53;27.30;80.60
2721;DHT22;1368;49.484;11.112;2022-09-09T11:07:41;27.30;82.90
2721;DHT22;1368;49.484;11.112;2022-09-09T11:13:42;27.50;81.00
2721;DHT22;1368;49.484;11.112;2022-09-09T11:18:41;27.40;81.50
2721;DHT22;1368;49.484;11.112;2022-09-09T11:21:18;27.10;83.00
2721;DHT22;1368;49.484;11.112;2022-09-09T11:23:52;27.10;83.40
2721;DHT22;1368;49.484;11.112;2022-09-09T11:26:29;27.00;83.00
2721;DHT22;1368;49.484;11.112;2022-09-09T11:32:11;27.10;84.90
2721;DHT22;1368;49.484;11.112;2022-09-09T11:40:24;28.30;81.40
2721;DHT22;1368;49.484;11.112;2022-09-09T11:43:23;28.40;80.70
2721;DHT22;1368;49.484;11.112;2022-09-09T11:45:55;28.40;81.30
2721;DHT22;1368;49.484;11.112;2022-09-09T11:51:00;28.60;79.20
2721;DHT22;1368;49.484;11.112;2022-09-09T11:53:28;28.90;78.40
2721;DHT22;1368;49.484;11.112;2022-09-09T11:56:09;28.80;77.50
2721;DHT22;1368;49.484;11.112;2022-09-09T11:58:44;28.60;78.70
2721;DHT22;1368;49.484;11.112;2022-09-09T12:01:33;28.50;80.10
2721;DHT22;1368;49.484;11.112;2022-09-09T12:06:46;28.00;79.90
2721;DHT22;1368;49.484;11.112;2022-09-09T12:12:23;27.90;79.40
2721;DHT22;1368;49.484;11.112;2022-09-09T12:14:56;27.60;79.90
2721;DHT22;1368;49.484;11.112;2022-09-09T12:17:24;27.40;78.70
2721;DHT22;1368;49.484;11.112;2022-09-09T12:20:12;27.20;80.10
2721;DHT22;1368;49.484;11.112;2022-09-09T12:23:00;27.20;78.80
2721;DHT22;1368;49.484;11.112;2022-09-09T12:30:58;27.30;80.00
2721;DHT22;1368;49.484;11.112;2022-09-09T12:33:34;27.50;77.50
2721;DHT22;1368;49.484;11.112;2022-09-09T12:36:01;27.60;74.00
2721;DHT22;1368;49.484;11.112;2022-09-09T12:38:40;27.60;72.10
2721;DHT22;1368;49.484;11.112;2022-09-09T12:41:17;27.50;75.30
2721;DHT22;1368;49.484;11.112;2022-09-09T12:43:44;27.50;72.70
2721;DHT22;1368;49.484;11.112;2022-09-09T12:46:36;27.20;73.90
2721;DHT22;1368;49.484;11.112;2022-09-09T12:49:02;27.00;72.00
2721;DHT22;1368;49.484;11.112;2022-09-09T12:51:30;26.50;73.50
2721;DHT22;1368;49.484;11.112;2022-09-09T12:53:56;26.30;75.60
2721;DHT22;1368;49.484;11.112;2022-09-09T12:56:28;26.70;76.30
2721;DHT22;1368;49.484;11.112;2022-09-09T12:58:56;26.70;77.40
2721;DHT22;1368;49.484;11.112;2022-09-09T13:03:52;26.60;77.30
2721;DHT22;1368;49.484;11.112;2022-09-09T13:06:26;26.60;79.30
2721;DHT22;1368;49.484;11.112;2022-09-09T13:08:53;26.50;78.60
2721;DHT22;1368;49.484;11.112;2022-09-09T13:11:26;25.90;80.40
2721;DHT22;1368;49.484;11.112;2022-09-09T13:13:55;25.20;86.80
2721;DHT22;1368;49.484;11.112;2022-09-09T13:16:23;25.10;88.90
2721;DHT22;1368;49.484;11.112;2022-09-09T13:18:50;25.00;90.40
2721;DHT22;1368;49.484;11.112;2022-09-09T13:21:17;25.20;90.10
2721;DHT22;1368;49.484;11.112;2022-09-09T13:23:49;24.90;90.20
2721;DHT22;1368;49.484;11.112;2022-09-09T13:26:26;24.70;90.30
2721;DHT22;1368;49.484;11.112;2022-09-09T13:28:53;24.60;90.80
2721;DHT22;1368;49.484;11.112;2022-09-09T13:31:29;24.80;91.00
2721;DHT22;1368;49.484;11.112;2022-09-09T13:33:57;24.70;91.10
2721;DHT22;1368;49.484;11.112;2022-09-09T13:36:31;25.00;91.30
2721;DHT22;1368;49.484;11.112;2022-09-09T13:38:59;25.30;90.90
2721;DHT22;1368;49.484;11.112;2022-09-09T13:41:35;25.50;90.70
2721;DHT22;1368;49.484;11.112;2022-09-09T13:44:03;25.00;90.40
2721;DHT22;1368;49.484;11.112;2022-09-09T13:49:21;25.40;90.20
2721;DHT22;1368;49.484;11.112;2022-09-09T13:52:02;25.30;91.20
2721;DHT22;1368;49.484;11.112;2022-09-09T13:54:28;25.30;90.60
2721;DHT22;1368;49.484;11.112;2022-09-09T13:56:56;24.90;91.10
2721;DHT22;1368;49.484;11.112;2022-09-09T13:59:22;24.60;91.70
2721;DHT22;1368;49.484;11.112;2022-09-09T14:01:48;24.70;91.80
2721;DHT22;1368;49.484;11.112;2022-09-09T14:04:18;24.70;90.00
2721;DHT22;1368;49.484;11.112;2022-09-09T14:06:46;24.90;90.20
2721;DHT22;1368;49.484;11.112;2022-09-09T14:09:15;25.00;87.50
2721;DHT22;1368;49.484;11.112;2022-09-09T14:11:41;25.00;87.00
2721;DHT22;1368;49.484;11.112;2022-09-09T14:14:07;24.50;86.60
2721;DHT22;1368;49.484;11.112;2022-09-09T14:16:33;24.50;86.50
2721;DHT22;1368;49.484;11.112;2022-09-09T14:18:59;24.60;86.90
2721;DHT22;1368;49.484;11.112;2022-09-09T14:21:26;24.50;85.50
2721;DHT22;1368;49.484;11.112;2022-09-09T14:23:52;24.60;86.00
2721;DHT22;1368;49.484;11.112;2022-09-09T14:26:19;24.70;86.40
2721;DHT22;1368;49.484;11.112;2022-09-09T14:28:47;24.70;87.20
2721;DHT22;1368;49.484;11.112;2022-09-09T14:31:13;24.80;87.00
2721;DHT22;1368;49.484;11.112;2022-09-09T14:33:40;24.90;87.50
2721;DHT22;1368;49.484;11.112;2022-09-09T14:36:06;25.10;87.60
2721;DHT22;1368;49.484;11.112;2022-09-09T14:38:34;25.00;87.60
2721;DHT22;1368;49.484;11.112;2022-09-09T14:41:00;25.00;87.60
2721;DHT22;1368;49.484;11.112;2022-09-09T14:43:28;24.90;88.60
2721;DHT22;1368;49.484;11.112;2022-09-09T14:45:55;24.80;88.60
2721;DHT22;1368;49.484;11.112;2022-09-09T14:48:20;24.60;89.40
2721;DHT22;1368;49.484;11.112;2022-09-09T14:50:46;24.60;90.20
2721;DHT22;1368;49.484;11.112;2022-09-09T14:53:12;24.70;90.60
2721;DHT22;1368;49.484;11.112;2022-09-09T14:55:38;24.70;90.80
2721;DHT22;1368;49.484;11.112;2022-09-09T14:58:04;24.80;90.70
2721;DHT22;1368;49.484;11.112;2022-09-09T15:00:31;25.00;90.40
2721;DHT22;1368;49.484;11.112;2022-09-09T15:02:57;25.00;90.20
2721;DHT22;1368;49.484;11.112;2022-09-09T15:05:22;24.70;90.50
2721;DHT22;1368;49.484;11.112;2022-09-09T15:07:49;24.30;91.30
2721;DHT22;1368;49.484;11.112;2022-09-09T15:10:15;24.60;92.20
2721;DHT22;1368;49.484;11.112;2022-09-09T15:12:43;24.80;91.70
2721;DHT22;1368;49.484;11.112;2022-09-09T15:15:09;25.30;91.80
2721;DHT22;1368;49.484;11.112;2022-09-09T15:17:35;24.70;91.40
2721;DHT22;1368;49.484;11.112;2022-09-09T15:20:02;24.70;92.10
2721;DHT22;1368;49.484;11.112;2022-09-09T15:22:28;24.80;92.00
2721;DHT22;1368;49.484;11.112;2022-09-09T15:24:53;25.20;91.90
2721;DHT22;1368;49.484;11.112;2022-09-09T15:27:19;25.20;92.00
2721;DHT22;1368;49.484;11.112;2022-09-09T15:29:45;25.10;91.60
2721;DHT22;1368;49.484;11.112;2022-09-09T15:32:12;24.80;91.70
2721;DHT22;1368;49.484;11.112;2022-09-09T15:34:37;24.70;92.40
2721;DHT22;1368;49.484;11.112;2022-09-09T15:37:03;24.70;92.20
2721;DHT22;1368;49.484;11.112;2022-09-09T15:39:28;24.70;92.20
2721;DHT22;1368;49.484;11.112;2022-09-09T15:41:54;25.10;92.70
2721;DHT22;1368;49.484;11.112;2022-09-09T15:44:19;24.40;92.00
2721;DHT22;1368;49.484;11.112;2022-09-09T15:46:49;24.20;92.90
2721;DHT22;1368;49.484;11.112;2022-09-09T15:49:16;24.10;93.10
2721;DHT22;1368;49.484;11.112;2022-09-09T15:51:47;24.00;93.30
2721;DHT22;1368;49.484;11.112;2022-09-09T15:54:17;24.00;92.90
2721;DHT22;1368;49.484;11.112;2022-09-09T15:56:45;24.00;92.80
2721;DHT22;1368;49.484;11.112;2022-09-09T15:59:11;23.80;92.90
2721;DHT22;1368;49.484;11.112;2022-09-09T16:01:37;23.80;92.90
2721;DHT22;1368;49.484;11.112;2022-09-09T16:04:05;23.90;92.40
2721;DHT22;1368;49.484;11.112;2022-09-09T16:06:30;23.80;92.60
2721;DHT22;1368;49.484;11.112;2022-09-09T16:08:57;23.70;92.70
2721;DHT22;1368;49.484;11.112;2022-09-09T16:11:31;24.20;92.70
2721;DHT22;1368;49.484;11.112;2022-09-09T16:13:57;23.50;91.60
2721;DHT22;1368;49.484;11.112;2022-09-09T16:16:25;23.30;91.10
2721;DHT22;1368;49.484;11.112;2022-09-09T16:18:55;23.30;91.90
2721;DHT22;1368;49.484;11.112;2022-09-09T16:23:50;23.50;91.10
2721;DHT22;1368;49.484;11.112;2022-09-09T16:26:16;23.60;90.30
2721;DHT22;1368;49.484;11.112;2022-09-09T16:28:43;23.80;89.10
2721;DHT22;1368;49.484;11.112;2022-09-09T16:31:10;24.00;86.70
2721;DHT22;1368;49.484;11.112;2022-09-09T16:33:39;24.10;86.40
2721;DHT22;1368;49.484;11.112;2022-09-09T16:36:16;24.50;86.20
2721;DHT22;1368;49.484;11.112;2022-09-09T16:38:42;24.00;84.40
2721;DHT22;1368;49.484;11.112;2022-09-09T16:41:09;24.00;83.40
2721;DHT22;1368;49.484;11.112;2022-09-09T16:43:36;24.00;84.70
2721;DHT22;1368;49.484;11.112;2022-09-09T16:46:17;23.70;83.00
2721;DHT22;1368;49.484;11.112;2022-09-09T16:48:44;23.50;84.70
2721;DHT22;1368;49.484;11.112;2022-09-09T16:51:24;23.60;83.90
2721;DHT22;1368;49.484;11.112;2022-09-09T16:53:51;23.60;83.40
2721;DHT22;1368;49.484;11.112;2022-09-09T16:56:19;23.40;83.60
2721;DHT22;1368;49.484;11.112;2022-09-09T16:58:50;23.40;85.30
2721;DHT22;1368;49.484;11.112;2022-09-09T17:01:16;23.50;84.90
2721;DHT22;1368;49.484;11.112;2022-09-09T17:03:41;23.50;85.80
2721;DHT22;1368;49.484;11.112;2022-09-09T17:06:12;23.60;84.20
2721;DHT22;1368;49.484;11.112;2022-09-09T17:08:39;23.50;84.30
2721;DHT22;1368;49.484;11.112;2022-09-09T17:11:12;22.90;84.00
2721;DHT22;1368;49.484;11.112;2022-09-09T17:13:39;22.80;86.30
2721;DHT22;1368;49.484;11.112;2022-09-09T17:16:05;22.80;87.10
2721;DHT22;1368;49.484;11.112;2022-09-09T17:18:31;23.00;87.20
2721;DHT22;1368;49.484;11.112;2022-09-09T17:21:05;23.00;87.70
2721;DHT22;1368;49.484;11.112;2022-09-09T17:23:32;22.90;86.70
2721;DHT22;1368;49.484;11.112;2022-09-09T17:25:58;22.80;87.60
2721;DHT22;1368;49.484;11.112;2022-09-09T17:28:25;23.40;88.90
2721;DHT22;1368;49.484;11.112;2022-09-09T17:30:58;22.50;89.30
2721;DHT22;1368;49.484;11.112;2022-09-09T17:33:29;22.60;89.90
2721;DHT22;1368;49.484;11.112;2022-09-09T17:36:07;22.60;90.10
2721;DHT22;1368;49.484;11.112;2022-09-09T17:38:33;22.50;90.10
2721;DHT22;1368;49.484;11.112;2022-09-09T17:41:13;22.40;90.30
2721;DHT22;1368;49.484;11.112;2022-09-09T17:43:39;22.40;90.60
2721;DHT22;1368;49.484;11.112;2022-09-09T17:46:09;22.30;90.60
2721;DHT22;1368;49.484;11.112;2022-09-09T17:48:35;22.30;90.80
2721;DHT22;1368;49.484;11.112;2022-09-09T17:51:09;22.20;90.80
2721;DHT22;1368;49.484;11.112;2022-09-09T17:53:39;22.20;91.00
2721;DHT22;1368;49.484;11.112;2022-09-09T17:56:06;22.20;91.20
2721;DHT22;1368;49.484;11.112;2022-09-09T17:58:33;22.30;90.90
2721;DHT22;1368;49.484;11.112;2022-09-09T18:01:14;22.30;91.30
2721;DHT22;1368;49.484;11.112;2022-09-09T18:03:41;22.20;91.20